Tiempo atmosférico en la estación meteorológica de El Pinar, Depósito, Santa Cruz de Tenerife (948 m.)



Fecha
DESCASC
Temp. máxima en grados centígrados (hora)
DESCASC
Temp. mínima en grados centígrados (hora)
DESCASC
Temp. media en grados centígrados
DESCASC
Racha de viento máxima en m/sg (hora)
DESCASC
Velocidad máxima media en intervalos de 10 minutos(hora)
DESCASC
Precipitaciones diarias en mm
DESCASC
Precipitaciones de 00:00 a 06:00 en mm
DESCASC
Precipitaciones de 06:00 a 12:00 en mm
DESCASC
Precipitaciones de 12:00 a 18:00 en mm
DESCASC
Precipitaciones de 18:00 a 24:00 en mm
DESCASC
31-05-2020 18.7 (15:50) 13.6 (03:40) 16.2 7.22 (16:00) 3.06 (16:00) 0 0 0 0 0
30-05-2020 20.1 (13:50) 11.7 (07:20) 15.9 7.78 (14:50) 3.61 (12:40) 0 0 0 0 0
28-05-2020 28.8 (12:40) 18.6 (00:00) 23.7 5.83 (15:50) 3.06 (14:10) 0 0 0 0 0
27-05-2020 29.5 (14:30) 19.2 (06:10) 24.4 5 (17:30) 2.78 (13:20) 0 0 0 0 0
26-05-2020 30 (19:00) 19.4 (00:00) 24.7 6.11 (15:30) 3.06 (12:10) 0 0 0 0 0
25-05-2020 30.8 (19:00) 19.5 (00:00) 25.1 6.11 (19:00) 3.06 (13:40) 0 0 0 0 0
24-05-2020 31.9 (13:00) 21.9 (23:59) 26.9 7.78 (08:30) 3.61 (09:20) 0 0 0 0 0
23-05-2020 30.3 (17:20) 18.3 (00:00) 24.3 13.33 (15:40) 5.28 (16:10) 0 0 0 0 0
22-05-2020 26 (18:00) 12.6 (00:00) 19.3 6.39 (00:30) 3.06 (13:50) 0 0 0 0 0
21-05-2020 22.7 (18:40) 11.6 (00:00) 17.2 6.67 (04:50) 3.33 (10:50) 0 0 0 0 0
20-05-2020 22.8 (16:10) 12.1 (00:00) 17.4 11.67 (00:20) 4.72 (00:20) 0 0 0 0 0
19-05-2020 19.3 (15:20) 11.4 (06:10) 15.3 11.11 (23:59) 3.89 (07:20) 0 0 0 0 0
18-05-2020 18 (16:30) 7.9 (00:00) 13 8.61 (22:10) 3.61 (10:40) 0 0 0 0 0
17-05-2020 14 (17:50) 10.4 (00:00) 12.2 7.78 (09:10) 3.06 (10:20) 0.2 0 0 0.2 0
16-05-2020 14.9 (15:20) 10.3 (00:00) 12.6 9.17 (00:30) 3.61 (01:30) 0 0 0 0 0
15-05-2020 15.5 (13:10) 9.7 (07:30) 12.6 14.17 (06:40) 5 (06:20) 0.2 0.2 0 0 0
14-05-2020 15.8 (13:30) 10.4 (00:00) 13.1 13.89 (20:50) 6.11 (21:10) 0 0 0 0 0
13-05-2020 18 (13:30) 10.3 (00:00) 14.2 12.5 (11:50) 4.17 (10:00) 0 0 0 0 0
12-05-2020 16 (14:30) 11 (02:30) 13.5 11.11 (17:00) 3.61 (22:00) 0.6 0 0.6 0 0
11-05-2020 20.6 (14:30) 11.4 (00:00) 16 13.89 (23:50) 5 (18:20) 3.6 0 0 0 3.6
10-05-2020 23 (16:10) 12 (00:00) 17.5 10.56 (19:10) 4.72 (00:40) 0 0 0 0 0
09-05-2020 19.4 (13:40) 12.8 (03:50) 16.1 8.89 (23:30) 4.44 (23:30) 0 0 0 0 0
08-05-2020 20.5 (17:30) 7.5 (00:00) 14 7.78 (18:20) 2.78 (14:10) 0 0 0 0 0
07-05-2020 17.4 (15:00) 9.8 (00:00) 13.6 8.61 (22:50) 3.89 (22:50) 0 0 0 0 0
06-05-2020 18.6 (14:50) 10.5 (00:00) 14.6 7.78 (15:40) 3.06 (11:20) 0 0 0 0 0
05-05-2020 19.1 (15:40) 7.9 (00:00) 13.5 7.5 (23:30) 3.33 (15:00) 0 0 0 0 0
04-05-2020 18.2 (17:00) 10.6 (00:00) 14.4 10 (02:30) 3.89 (02:50) 0 0 0 0 0
03-05-2020 23.4 (15:40) 12.7 (23:59) 18 11.67 (21:50) 5 (21:10) 0 0 0 0 0

Gráficas

Temp. máximas Temp. mínimas Temp. medias Precipitaciones Rachas de viento máximas Velocidades máximas media en intervalos de 10 minutos

Datos horarios

Fecha y hora oficial Temperatura (ºC) Velocidad del viento (km/h) Dirección del viento Racha (km/h) Dirección de racha Precipitación (mm) Presión (hPa) Tendencia (hPa) Humedad (%)
2020-06-01 23:00:00 10.1 5 Norte 10 Norte 0 -- -- 62
2020-06-01 22:00:00 12 4 Norte 9 Oeste 0 -- -- 78
2020-06-01 21:00:00 13.8 12 Noroeste 26 Noroeste 0 -- -- 75
2020-06-01 20:00:00 15.3 3 Oeste 17 Oeste 0 -- -- 80
2020-06-01 19:00:00 16.6 5 Sudeste 16 Sur 0 -- -- 81
2020-06-01 18:00:00 16.8 5 Sur 18 Sudeste 0 -- -- 76
2020-06-01 17:00:00 17.5 7 Sudeste 21 Sur 0 -- -- 74
2020-06-01 16:00:00 17.6 11 Sudeste 21 Sudeste 0 -- -- 73
2020-06-01 15:00:00 17.7 12 Sudeste 23 Sudeste 0 -- -- 70
2020-06-01 14:00:00 18.7 12 Sudeste 23 Sur 0 -- -- 67
2020-06-01 13:00:00 15.5 5 Este 23 Sur 0 -- -- 83
2020-06-01 12:00:00 18.4 10 Sur 26 Sur 0 -- -- 70
2020-06-01 11:00:00 16.8 9 Sudoeste 22 Sur 0 -- -- 67
2020-06-01 10:00:00 15.4 10 Sudeste 14 Sudeste 0 -- -- 84
2020-06-01 09:00:00 14.7 4 Sudoeste 12 Oeste 0 -- -- 74
2020-06-01 08:00:00 12.4 4 Noroeste 12 Noroeste 0 -- -- 86
2020-06-01 07:00:00 12 4 Noroeste 11 Noroeste 0 -- -- 90
2020-06-01 06:00:00 10.7 6 Noroeste 13 Noroeste 0 -- -- 87
2020-06-01 05:00:00 10.8 5 Noroeste 15 Noroeste 0 -- -- 87
2020-06-01 04:00:00 10.2 5 Norte 9 Noroeste 0 -- -- 86
2020-06-01 03:00:00 10.7 5 Norte 15 Noroeste 0 -- -- 79
2020-06-01 02:00:00 11.8 8 Noroeste 14 Noroeste 0 -- -- 78
2020-06-01 01:00:00 12.9 6 Noroeste 17 Noroeste 0 -- -- 79
2020-06-01 00:00:00 13.8 6 Noroeste 14 Noroeste 0 -- -- 81
2020-05-31 23:00:00 14.5 4 Norte 11 Noroeste 0 -- -- 80
2020-05-31 22:00:00 14.7 3 Noroeste 12 Norte 0 -- -- 79
2020-05-31 21:00:00 14.6 4 Noroeste 17 Noroeste 0 -- -- 80
2020-05-31 20:00:00 15.3 3 Nordeste 12 Noroeste 0 -- -- 79
2020-05-31 19:00:00 15.6 4 Norte 15 Oeste 0 -- -- 80
2020-05-31 18:00:00 16.5 8 Noroeste 19 Noroeste 0 -- -- 73
2020-05-31 17:00:00 18.4 9 Noroeste 21 Norte 0 -- -- 60
2020-05-31 16:00:00 18.6 11 Nordeste 26 Nordeste 0 -- -- 63
2020-05-31 15:00:00 16.9 6 Norte 16 Norte 0 -- -- 70
2020-05-31 14:00:00 17.2 7 Norte 18 Norte 0 -- -- 71
2020-05-31 13:00:00 17.5 7 Noroeste 22 Noroeste 0 -- -- 67
2020-05-31 12:00:00 17.1 7 Sudeste 19 Sudeste 0 -- -- 73
2020-05-31 11:00:00 17.8 4 Sur 22 Noroeste 0 -- -- 63
2020-05-31 10:00:00 17.1 8 Noroeste 20 Norte 0 -- -- 55
2020-05-31 09:00:00 15.7 8 Norte 17 Norte 0 -- -- 63
2020-05-31 08:00:00 14.4 4 Norte 13 Noroeste 0 -- -- 79
2020-05-31 07:00:00 14.4 0 Calma 11 Oeste 0 -- -- 80
2020-05-31 06:00:00 14.3 2 Este 12 Oeste 0 -- -- 80
2020-05-31 05:00:00 14.2 5 Oeste 18 Este 0 -- -- 81
2020-05-31 04:00:00 13.7 4 Este 13 Norte 0 -- -- 84
2020-05-31 03:00:00 14.3 2 Nordeste 10 Sudeste 0 -- -- 88
2020-05-31 02:00:00 14.7 2 Sur 12 Este 0 -- -- 85
2020-05-31 01:00:00 14.6 5 Norte 15 Norte 0 -- -- 79
2020-05-31 00:00:00 14.8 5 Este 17 Noroeste 0 -- -- 78
2020-05-30 23:00:00 14.7 5 Noroeste 11 Nordeste 0 -- -- 78
2020-05-30 22:00:00 14.9 6 Este 17 Norte 0 -- -- 80
2020-05-30 21:00:00 15.1 5 Nordeste 12 Este 0 -- -- 74
2020-05-30 20:00:00 15.7 5 Norte 16 Norte 0 -- -- 72
2020-05-30 19:00:00 16.9 4 Norte 18 Noroeste 0 -- -- 68
2020-05-30 18:00:00 17 7 Noroeste 17 Noroeste 0 -- -- 67
2020-05-30 17:00:00 18 9 Noroeste 22 Oeste 0 -- -- 65
2020-05-30 16:00:00 18.5 8 Norte 22 Noroeste 0 -- -- 59
2020-05-30 15:00:00 19.8 10 Norte 28 Noroeste 0 -- -- 54
2020-05-30 14:00:00 19.7 12 Noroeste 26 Noroeste 0 -- -- 54
2020-05-30 13:00:00 18.9 8 Noroeste 27 Noroeste 0 -- -- 57
2020-05-30 12:00:00 16.2 8 Noroeste 20 Oeste 0 -- -- 72
2020-05-30 11:00:00 15.7 6 Oeste 18 Oeste 0 -- -- 74
2020-05-30 10:00:00 15 4 Sudeste 13 Sudeste 0 -- -- 78
2020-05-30 09:00:00 14.3 5 Nordeste 11 Este 0 -- -- 81
2020-05-30 08:00:00 12.9 3 Norte 10 Nordeste 0 -- -- 86
2020-05-30 07:00:00 11.8 0 Calma 6 Noroeste 0 -- -- 85
2020-05-30 06:00:00 12.4 4 Norte 14 Norte 0 -- -- 83
2020-05-30 05:00:00 12.2 4 Norte 8 Norte 0 -- -- 83
2020-05-30 04:00:00 12.9 0 Calma 10 Norte 0 -- -- 80
2020-05-30 03:00:00 13.1 4 Oeste 11 Oeste 0 -- -- 87
2020-05-30 02:00:00 13.3 4 Oeste 7 Oeste 0 -- -- 85
2020-05-30 01:00:00 13.7 2 Norte 10 Este 0 -- -- 86
2020-05-30 00:00:00 14 3 Este 11 Este 0 -- -- 89
2020-05-29 23:00:00 14.1 0 Calma 5 Noroeste 0 -- -- 85
2020-05-29 22:00:00 14.7 0 Calma 6 Oeste 0 -- -- 86
2020-05-29 21:00:00 15.1 2 Sudeste 8 Sur 0 -- -- 87
2020-05-29 20:00:00 16 5 Sudeste 14 Sudeste 0 -- -- 82
2020-05-29 19:00:00 17.7 7 Sudeste 17 Sudeste 0 -- -- 75
2020-05-29 18:00:00 19 11 Sur 22 Sur 0 -- -- 68
2020-05-29 17:00:00 20.4 11 Sur 22 Sur 0 -- -- 63
2020-05-29 16:00:00 21.2 10 Sur 21 Sur 0 -- -- 60
2020-05-29 15:00:00 21.4 9 Sudeste 22 Sur 0 -- -- 59
2020-05-29 14:00:00 22.5 8 Sudoeste 17 Sur 0 -- -- 56
2020-05-29 13:00:00 21.2 7 Sur 14 Sudeste 0 -- -- 59
2020-05-29 12:00:00 22.5 7 Sudeste 15 Sudeste 0 -- -- 57
2020-05-29 11:00:00 21.3 5 Sudeste 15 Sudeste 0 -- -- 51
2020-05-29 10:00:00 22.5 5 Sudeste 11 Sudeste 0 -- -- 43
2020-05-29 09:00:00 21.2 0 Calma 6 Sur 0 -- -- 26
2020-05-29 08:00:00 16.6 4 Norte 8 Norte 0 -- -- 31
2020-05-29 07:00:00 16.5 4 Norte 6 Norte 0 -- -- 29
2020-05-29 06:00:00 17.5 4 Norte 7 Noroeste 0 -- -- 28
2020-05-29 05:00:00 18.5 3 Norte 9 Noroeste 0 -- -- 27
2020-05-29 04:00:00 19.2 3 Noroeste 8 Noroeste 0 -- -- 26
2020-05-29 03:00:00 19.4 5 Noroeste 14 Noroeste 0 -- -- 24
2020-05-29 02:00:00 19.3 2 Norte 11 Noroeste 0 -- -- 26
2020-05-29 01:00:00 19.6 6 Noroeste 10 Noroeste 0 -- -- 26
2020-05-29 00:00:00 20.1 3 Norte 8 Noroeste 0 -- -- 25
2020-05-28 23:00:00 21.3 3 Noroeste 13 Noroeste 0 -- -- 23
2020-05-28 22:00:00 21.5 4 Noroeste 11 Oeste 0 -- -- 23
2020-05-28 21:00:00 23.9 4 Noroeste 8 Noroeste 0 -- -- 20
2020-05-28 20:00:00 25.9 2 Oeste 12 Sur 0 -- -- 27
2020-05-28 19:00:00 27.4 6 Sur 13 Sur 0 -- -- 23
2020-05-28 18:00:00 27.8 9 Sur 16 Sudeste 0 -- -- 29
2020-05-28 17:00:00 28.1 9 Sur 17 Sur 0 -- -- 32
2020-05-28 16:00:00 27.6 6 Sur 21 Sur 0 -- -- 27
2020-05-28 15:00:00 27.4 7 Sur 18 Sur 0 -- -- 31
2020-05-28 14:00:00 28.5 10 Sur 17 Sur 0 -- -- 27
2020-05-28 13:00:00 28.2 9 Sur 16 Sur 0 -- -- 26
2020-05-28 12:00:00 27.8 6 Sur 16 Sudeste 0 -- -- 20
2020-05-28 11:00:00 27.9 8 Sudeste 14 Sudeste 0 -- -- 17
2020-05-28 10:00:00 26.9 6 Sur 9 Sudeste 0 -- -- 17
2020-05-28 09:00:00 23.9 3 Sudeste 6 Sudeste 0 -- -- 14
2020-05-28 08:00:00 19.4 4 Norte 7 Norte 0 -- -- 21
2020-05-28 07:00:00 18.7 4 Noroeste 10 Norte 0 -- -- 18
2020-05-28 06:00:00 18.8 3 Noroeste 7 Norte 0 -- -- 18
2020-05-28 05:00:00 18.8 6 Norte 9 Norte 0 -- -- 18
2020-05-28 04:00:00 19.1 5 Norte 8 Norte 0 -- -- 18
2020-05-28 03:00:00 19.3 5 Norte 10 Norte 0 -- -- 18
2020-05-28 02:00:00 19.6 6 Norte 9 Norte 0 -- -- 18
2020-05-28 01:00:00 20 4 Norte 7 Norte 0 -- -- 18
2020-05-28 00:00:00 20.2 4 Norte 9 Norte 0 -- -- 16
2020-05-27 23:00:00 20.4 3 Norte 10 Norte 0 -- -- 15
2020-05-27 22:00:00 21.3 4 Nordeste 14 Nordeste 0 -- -- 15
2020-05-27 21:00:00 22.8 3 Este 8 Sudeste 0 -- -- 18
2020-05-27 20:00:00 25.3 2 Nordeste 9 Sur 0 -- -- 21
2020-05-27 19:00:00 27.8 5 Sur 13 Sudeste 0 -- -- 26
2020-05-27 18:00:00 27.8 7 Sur 18 Sur 0 -- -- 24
2020-05-27 17:00:00 28.2 8 Sur 16 Sudeste 0 -- -- 25
2020-05-27 16:00:00 29.1 9 Sur 17 Sur 0 -- -- 23
2020-05-27 15:00:00 28.3 6 Sur 16 Sudeste 0 -- -- 24
2020-05-27 14:00:00 28.8 9 Sudeste 17 Sudeste 0 -- -- 21
2020-05-27 13:00:00 27.8 10 Sudeste 17 Sudeste 0 -- -- 21
2020-05-27 12:00:00 28.7 8 Sudeste 14 Sudeste 0 -- -- 16
2020-05-27 11:00:00 29.2 7 Sudeste 13 Sudeste 0 -- -- 18
2020-05-27 10:00:00 27.9 4 Sudeste 9 Sudeste 0 -- -- 16
2020-05-27 09:00:00 25.9 3 Sudeste 16 Noroeste 0 -- -- 12
2020-05-27 08:00:00 21 8 Noroeste 16 Noroeste 0 -- -- 13
2020-05-27 07:00:00 19.3 3 Norte 14 Noroeste 0 -- -- 15
2020-05-27 06:00:00 19.3 4 Norte 9 Norte 0 -- -- 15
2020-05-27 05:00:00 19.4 6 Norte 10 Norte 0 -- -- 14
2020-05-27 04:00:00 19.6 5 Norte 10 Norte 0 -- -- 14
2020-05-27 03:00:00 19.5 6 Norte 10 Norte 0 -- -- 14
2020-05-27 02:00:00 19.9 6 Norte 9 Noroeste 0 -- -- 14
2020-05-27 01:00:00 20 4 Norte 12 Noroeste 0 -- -- 15
2020-05-27 00:00:00 19.7 6 Norte 10 Noroeste 0 -- -- 13
2020-05-26 23:00:00 19.7 8 Norte 12 Norte 0 -- -- 14
2020-05-26 22:00:00 20.3 6 Norte 13 Norte 0 -- -- 16
2020-05-26 21:00:00 23.3 5 Noroeste 12 Noroeste 0 -- -- 20
2020-05-26 20:00:00 27.1 2 Noroeste 10 Este 0 -- -- 17
2020-05-26 19:00:00 30 6 Sur 13 Sudeste 0 -- -- 14
2020-05-26 18:00:00 29.2 5 Este 15 Este 0 -- -- 10
2020-05-26 17:00:00 29.1 6 Este 14 Sudeste 0 -- -- 12
2020-05-26 16:00:00 28.7 10 Este 22 Este 0 -- -- 14
2020-05-26 15:00:00 28.5 10 Este 21 Sudeste 0 -- -- 14
2020-05-26 14:00:00 28.2 9 Este 21 Este 0 -- -- 14
2020-05-26 13:00:00 28 10 Este 19 Sudeste 0 -- -- 16
2020-05-26 12:00:00 27.6 9 Este 17 Este 0 -- -- 19
2020-05-26 11:00:00 28.3 10 Sudeste 17 Nordeste 0 -- -- 13
2020-05-26 10:00:00 28.1 7 Sudeste 15 Sudeste 0 -- -- 15
2020-05-26 09:00:00 25.7 6 Este 10 Este 0 -- -- 11
2020-05-26 08:00:00 19.7 5 Norte 11 Norte 0 -- -- 14
2020-05-26 07:00:00 19.4 7 Norte 10 Norte 0 -- -- 14
2020-05-26 06:00:00 19.5 6 Norte 9 Norte 0 -- -- 15
2020-05-26 05:00:00 20.2 5 Norte 14 Nordeste 0 -- -- 17
2020-05-26 04:00:00 20.5 6 Nordeste 13 Este 0 -- -- 13
2020-05-26 03:00:00 20.9 4 Norte 10 Norte 0 -- -- 13
2020-05-26 02:00:00 21.7 2 Este 13 Noroeste 0 -- -- 11
2020-05-26 01:00:00 22.3 2 Nordeste 11 Norte 0 -- -- 12
2020-05-26 00:00:00 22.1 4 Nordeste 8 Nordeste 0 -- -- 12
2020-05-25 23:00:00 22 2 Nordeste 8 Nordeste 0 -- -- 12
2020-05-25 22:00:00 24.2 4 Nordeste 13 Noroeste 0 -- -- 10
2020-05-25 21:00:00 26.6 2 Nordeste 15 Noroeste 0 -- -- 8
2020-05-25 20:00:00 28.4 3 Sudoeste 18 Noroeste 0 -- -- 11
2020-05-25 19:00:00 30.8 8 Noroeste 22 Noroeste 0 -- -- 7
2020-05-25 18:00:00 28.3 8 Sudeste 15 Sudeste 0 -- -- 21
2020-05-25 17:00:00 27.7 8 Este 19 Este 0 -- -- 20
2020-05-25 16:00:00 27.6 9 Este 19 Este 0 -- -- 19
2020-05-25 15:00:00 28.4 8 Sudeste 17 Este 0 -- -- 19
2020-05-25 14:00:00 29.3 8 Sudeste 19 Sudeste 0 -- -- 18
2020-05-25 13:00:00 29.2 9 Sudeste 19 Este 0 -- -- 18
2020-05-25 12:00:00 29.8 8 Este 17 Este 0 -- -- 16
2020-05-25 11:00:00 29.9 8 Sudeste 15 Este 0 -- -- 12
2020-05-25 10:00:00 29.3 8 Sudeste 13 Sudeste 0 -- -- 10
2020-05-25 09:00:00 24.4 0 Calma 8 Norte 0 -- -- 25
2020-05-25 08:00:00 20 8 Norte 10 Norte 0 -- -- 26
2020-05-25 07:00:00 19.6 8 Norte 12 Norte 0 -- -- 23
2020-05-25 06:00:00 19.8 7 Norte 10 Norte 0 -- -- 23
2020-05-25 05:00:00 20.2 7 Norte 11 Norte 0 -- -- 23
2020-05-25 04:00:00 20.4 7 Norte 12 Noroeste 0 -- -- 23
2020-05-25 03:00:00 20.6 8 Norte 10 Norte 0 -- -- 23
2020-05-25 02:00:00 21.2 7 Norte 9 Noroeste 0 -- -- 21
2020-05-25 01:00:00 21.8 6 Norte 10 Norte 0 -- -- 20
2020-05-25 00:00:00 21.9 8 Norte 10 Noroeste 0 -- -- 19
2020-05-24 23:00:00 22.3 8 Norte 11 Norte 0 -- -- 20
2020-05-24 22:00:00 23.3 7 Norte 10 Norte 0 -- -- 19
2020-05-24 21:00:00 25.4 6 Norte 10 Norte 0 -- -- 16
2020-05-24 20:00:00 27 3 Nordeste 12 Este 0 -- -- 9
2020-05-24 19:00:00 27.9 7 Este 14 Este 0 -- -- 5
2020-05-24 18:00:00 29 9 Este 17 Este 0 -- -- 9
2020-05-24 17:00:00 28.9 10 Este 18 Nordeste 0 -- -- 9
2020-05-24 16:00:00 30.5 8 Este 20 Este 0 -- -- 18
2020-05-24 15:00:00 26 12 Este 21 Este 0 -- -- 33
2020-05-24 14:00:00 31 9 Este 21 Este 0 -- -- 19
2020-05-24 13:00:00 31.9 8 Este 19 Este 0 -- -- 20
2020-05-24 12:00:00 30.8 8 Este 18 Sudeste 0 -- -- 17
2020-05-24 11:00:00 30 8 Este 17 Sudeste 0 -- -- 14
2020-05-24 10:00:00 29.5 6 Nordeste 28 Norte 0 -- -- 14
2020-05-24 09:00:00 25.8 9 Nordeste 28 Este 0 -- -- 15
2020-05-24 08:00:00 23.8 8 Nordeste 25 Norte 0 -- -- 17
2020-05-24 07:00:00 23.4 12 Nordeste 26 Este 0 -- -- 19
2020-05-24 06:00:00 24.9 8 Nordeste 19 Nordeste 0 -- -- 16
2020-05-24 05:00:00 25.2 8 Nordeste 17 Norte 0 -- -- 15
2020-05-24 04:00:00 26 8 Norte 26 Nordeste 0 -- -- 16
2020-05-24 03:00:00 24.6 6 Noroeste 22 Norte 0 -- -- 17
2020-05-24 02:00:00 23.1 7 Norte 17 Norte 0 -- -- 19
2020-05-24 01:00:00 24.9 7 Norte 26 Noroeste 0 -- -- 17
2020-05-24 00:00:00 26.5 10 Norte 30 Norte 0 -- -- 16
2020-05-23 23:00:00 26.5 5 Norte 24 Norte 0 -- -- 16
2020-05-23 22:00:00 26.2 8 Norte 26 Norte 0 -- -- 16
2020-05-23 21:00:00 26.6 9 Norte 27 Norte 0 -- -- 16
2020-05-23 20:00:00 27.5 9 Norte 25 Sudeste 0 -- -- 15
2020-05-23 19:00:00 29.3 9 Este 22 Sudeste 0 -- -- 15
2020-05-23 18:00:00 29.9 6 Este 28 Nordeste 0 -- -- 13
2020-05-23 17:00:00 30 12 Sudeste 40 Sudeste 0 -- -- 13
2020-05-23 16:00:00 29.2 13 Sur 48 Sudeste 0 -- -- 13
2020-05-23 15:00:00 28.2 9 Este 39 Sudeste 0 -- -- 18
2020-05-23 14:00:00 28 8 Este 30 Este 0 -- -- 18
2020-05-23 13:00:00 27.5 8 Norte 36 Este 0 -- -- 19
2020-05-23 12:00:00 26.7 10 Este 27 Nordeste 0 -- -- 22
2020-05-23 11:00:00 26.3 9 Nordeste 29 Nordeste 0 -- -- 24
2020-05-23 10:00:00 25.6 11 Este 29 Este 0 -- -- 22
2020-05-23 09:00:00 22.9 3 Sudeste 9 Sudeste 0 -- -- 26
2020-05-23 08:00:00 18.4 5 Norte 10 Norte 0 -- -- 32
2020-05-23 07:00:00 19.1 5 Norte 9 Nordeste 0 -- -- 29
2020-05-23 06:00:00 19.4 5 Norte 13 Norte 0 -- -- 27
2020-05-23 05:00:00 19.2 5 Nordeste 14 Nordeste 0 -- -- 31
2020-05-23 04:00:00 21.3 6 Norte 26 Norte 0 -- -- 23
2020-05-23 03:00:00 22 14 Norte 30 Nordeste 0 -- -- 25
2020-05-23 02:00:00 21 10 Norte 21 Noroeste 0 -- -- 25
2020-05-23 01:00:00 19.8 9 Norte 19 Norte 0 -- -- 24
2020-05-23 00:00:00 20.4 8 Noroeste 19 Noroeste 0 -- -- 23
2020-05-22 23:00:00 20.1 7 Norte 19 Norte 0 -- -- 22
2020-05-22 22:00:00 19.8 8 Norte 18 Norte 0 -- -- 23
2020-05-22 21:00:00 20.1 5 Norte 11 Norte 0 -- -- 26
2020-05-22 20:00:00 24 4 Este 15 Este 0 -- -- 22
2020-05-22 19:00:00 25.5 4 Este 17 Sudeste 0 -- -- 19
2020-05-22 18:00:00 26 7 Este 20 Este 0 -- -- 20
2020-05-22 17:00:00 25 9 Este 20 Este 0 -- -- 24
2020-05-22 16:00:00 24.8 8 Este 20 Este 0 -- -- 23
2020-05-22 15:00:00 24.9 10 Este 23 Nordeste 0 -- -- 21
2020-05-22 14:00:00 24.5 10 Este 23 Este 0 -- -- 21
2020-05-22 13:00:00 23.6 8 Este 21 Este 0 -- -- 18
2020-05-22 12:00:00 23.2 7 Este 17 Sudeste 0 -- -- 21
2020-05-22 11:00:00 21.8 8 Este 18 Este 0 -- -- 22
2020-05-22 10:00:00 22 9 Este 22 Sudeste 0 -- -- 19
2020-05-22 09:00:00 18.8 4 Sudoeste 9 Noroeste 0 -- -- 12
2020-05-22 08:00:00 12.9 6 Norte 8 Norte 0 -- -- 22
2020-05-22 07:00:00 13 6 Norte 11 Norte 0 -- -- 16
2020-05-22 06:00:00 13.8 6 Norte 13 Norte 0 -- -- 16
2020-05-22 05:00:00 13.9 6 Norte 13 Norte 0 -- -- 16
2020-05-22 04:00:00 13.8 3 Noroeste 11 Noroeste 0 -- -- 18
2020-05-22 03:00:00 16.1 5 Norte 18 Nordeste 0 -- -- 13
2020-05-22 02:00:00 18.7 6 Nordeste 22 Norte 0 -- -- 5
2020-05-22 01:00:00 18.1 6 Nordeste 23 Norte 0 -- -- 7
2020-05-22 00:00:00 16.2 6 Nordeste 15 Este 0 -- -- 12
2020-05-21 23:00:00 19.6 8 Este 22 Este 0 -- -- 6
2020-05-21 22:00:00 15.4 5 Norte 14 Norte 0 -- -- 10
2020-05-21 21:00:00 16.7 5 Norte 11 Norte 0 -- -- 15
2020-05-21 20:00:00 20.7 4 Nordeste 13 Este 0 -- -- 11
2020-05-21 19:00:00 22.4 6 Este 15 Este 0 -- -- 15
2020-05-21 18:00:00 22.4 8 Sur 17 Sudeste 0 -- -- 36
2020-05-21 17:00:00 22.1 11 Sudeste 18 Este 0 -- -- 29
2020-05-21 16:00:00 21.5 10 Sudeste 19 Sudeste 0 -- -- 55
2020-05-21 15:00:00 21 9 Sur 16 Sudeste 0 -- -- 56
2020-05-21 14:00:00 20.6 10 Sudeste 17 Sur 0 -- -- 59
2020-05-21 13:00:00 20.9 8 Sudeste 17 Sur 0 -- -- 55
2020-05-21 12:00:00 21.4 8 Sur 17 Sur 0 -- -- 52
2020-05-21 11:00:00 21.6 9 Sur 18 Sur 0 -- -- 39
2020-05-21 10:00:00 20.7 5 Sur 15 Noroeste 0 -- -- 32
2020-05-21 09:00:00 18.6 7 Noroeste 20 Noroeste 0 -- -- 25
2020-05-21 08:00:00 14.4 6 Noroeste 19 Noroeste 0 -- -- 32
2020-05-21 07:00:00 13.2 7 Norte 16 Norte 0 -- -- 33
2020-05-21 06:00:00 13.9 6 Norte 23 Norte 0 -- -- 35
2020-05-21 05:00:00 14.7 6 Nordeste 24 Norte 0 -- -- 38
2020-05-21 04:00:00 12.9 10 Norte 22 Norte 0 -- -- 40
2020-05-21 03:00:00 11.7 7 Norte 10 Norte 0 -- -- 49
2020-05-21 02:00:00 12.4 6 Norte 12 Norte 0 -- -- 48
2020-05-21 01:00:00 13.4 7 Norte 16 Norte 0 -- -- 45
2020-05-21 00:00:00 14.9 6 Norte 30 Norte 0 -- -- 41
2020-05-20 23:00:00 15.1 8 Norte 20 Norte 0 -- -- 39
2020-05-20 22:00:00 15 4 Este 22 Norte 0 -- -- 43
2020-05-20 21:00:00 16 10 Norte 24 Norte 0 -- -- 51
2020-05-20 20:00:00 18.3 7 Noroeste 19 Noroeste 0 -- -- 54
2020-05-20 19:00:00 21.6 6 Sudeste 13 Sudeste 0 -- -- 39
2020-05-20 18:00:00 21.7 8 Este 15 Sudeste 0 -- -- 24
2020-05-20 17:00:00 21.9 8 Este 23 Este 0 -- -- 33
2020-05-20 16:00:00 22.6 10 Este 22 Nordeste 0 -- -- 25
2020-05-20 15:00:00 21.7 10 Este 26 Este 0 -- -- 42
2020-05-20 14:00:00 21.8 11 Este 26 Nordeste 0 -- -- 32
2020-05-20 13:00:00 21.5 12 Este 24 Sudeste 0 -- -- 32
2020-05-20 12:00:00 21.7 11 Este 29 Este 0 -- -- 29
2020-05-20 11:00:00 21.1 14 Este 29 Sudeste 0 -- -- 27
2020-05-20 10:00:00 19.9 10 Este 20 Este 0 -- -- 29
2020-05-20 09:00:00 17.6 7 Nordeste 18 Este 0 -- -- 36
2020-05-20 08:00:00 12.1 6 Norte 36 Norte 0 -- -- 73
2020-05-20 07:00:00 12.9 14 Norte 35 Norte 0 -- -- 80
2020-05-20 06:00:00 14 14 Norte 37 Norte 0 -- -- 64
2020-05-20 05:00:00 14.4 10 Norte 30 Norte 0 -- -- 56
2020-05-20 04:00:00 13.7 11 Norte 39 Noroeste 0 -- -- 69
2020-05-20 03:00:00 12.7 9 Este 39 Norte 0 -- -- 82
2020-05-20 02:00:00 12.3 10 Norte 32 Norte 0 -- -- 88
2020-05-20 01:00:00 12.4 12 Noroeste 42 Noroeste 0 -- -- 84
2020-05-20 00:00:00 12.3 14 Noroeste 40 Noroeste 0 -- -- 90
2020-05-19 23:00:00 12.1 4 Sudoeste 12 Oeste 0 -- -- 94
2020-05-19 22:00:00 12.5 3 Sudoeste 12 Sudoeste 0 -- -- 90
2020-05-19 21:00:00 13.3 6 Noroeste 23 Noroeste 0 -- -- 85
2020-05-19 20:00:00 14.5 7 Sudoeste 18 Noroeste 0 -- -- 79
2020-05-19 19:00:00 16.5 10 Sudeste 20 Este 0 -- -- 78
2020-05-19 18:00:00 16.2 9 Este 20 Este 0 -- -- 74
2020-05-19 17:00:00 19 6 Norte 22 Noroeste 0 -- -- 65
2020-05-19 16:00:00 18.4 10 Noroeste 26 Noroeste 0 -- -- 63
2020-05-19 15:00:00 18.9 8 Norte 25 Norte 0 -- -- 61
2020-05-19 14:00:00 18 8 Norte 27 Norte 0 -- -- 65
2020-05-19 13:00:00 18.2 8 Sudoeste 28 Noroeste 0 -- -- 62
2020-05-19 12:00:00 16.8 10 Noroeste 35 Noroeste 0 -- -- 68
2020-05-19 11:00:00 16 8 Norte 36 Noroeste 0 -- -- 73
2020-05-19 10:00:00 15.1 10 Norte 30 Norte 0 -- -- 74
2020-05-19 09:00:00 13.3 11 Noroeste 32 Oeste 0 -- -- 86
2020-05-19 08:00:00 11.8 10 Norte 35 Noroeste 0 -- -- 86
2020-05-19 07:00:00 11.4 11 Noroeste 28 Noroeste 0 -- -- 85
2020-05-19 06:00:00 11.5 4 Este 25 Norte 0 -- -- 89
2020-05-19 05:00:00 11.9 9 Norte 25 Noroeste 0 -- -- 90
2020-05-19 04:00:00 11.6 7 Norte 33 Oeste 0 -- -- 86
2020-05-19 03:00:00 11.7 10 Norte 27 Norte 0 -- -- 85
2020-05-19 02:00:00 11.7 9 Norte 24 Norte 0 -- -- 85
2020-05-19 01:00:00 11.8 8 Noroeste 23 Noroeste 0 -- -- 85
2020-05-19 00:00:00 11.9 9 Noroeste 24 Norte 0 -- -- 82
2020-05-18 23:00:00 12 9 Norte 31 Norte 0 -- -- 80
2020-05-18 22:00:00 12.3 8 Norte 26 Norte 0 -- -- 80
2020-05-18 21:00:00 12.8 9 Norte 25 Noroeste 0 -- -- 80
2020-05-18 20:00:00 13.7 12 Noroeste 28 Noroeste 0 -- -- 72
2020-05-18 19:00:00 16.3 8 Norte 30 Noroeste 0 -- -- 53
2020-05-18 18:00:00 16.7 7 Sudeste 19 Este 0 -- -- 61
2020-05-18 17:00:00 17.8 9 Nordeste 28 Este 0 -- -- 58
2020-05-18 16:00:00 17.7 8 Sudeste 22 Nordeste 0 -- -- 59
2020-05-18 15:00:00 17 6 Nordeste 25 Este 0 -- -- 62
2020-05-18 14:00:00 14.7 10 Este 24 Norte 0 -- -- 71
2020-05-18 13:00:00 14.5 6 Noroeste 23 Noroeste 0 -- -- 75
2020-05-18 12:00:00 14.1 8 Nordeste 23 Norte 0 -- -- 79
2020-05-18 11:00:00 13.6 6 Sur 25 Este 0 -- -- 80
2020-05-18 10:00:00 12.8 6 Este 19 Sudeste 0 -- -- 91
2020-05-18 09:00:00 12.7 6 Este 23 Este 0 -- -- 84
2020-05-18 08:00:00 9.6 5 Nordeste 16 Norte 0 -- -- 93
2020-05-18 07:00:00 8.4 4 Norte 15 Nordeste 0 -- -- 91
2020-05-18 06:00:00 9 5 Noroeste 14 Norte 0 -- -- 89
2020-05-18 05:00:00 9.8 3 Nordeste 14 Norte 0 -- -- 87
2020-05-18 04:00:00 10.2 5 Norte 17 Noroeste 0 -- -- 86
2020-05-18 03:00:00 10.2 6 Norte 19 Norte 0 -- -- 83
2020-05-18 02:00:00 11.3 6 Norte 19 Norte 0 -- -- 82
2020-05-18 01:00:00 10.8 9 Norte 24 Norte 0 -- -- 81
2020-05-18 00:00:00 11.2 8 Norte 23 Nordeste 0 -- -- 81
2020-05-17 23:00:00 11.7 7 Nordeste 22 Este 0 -- -- 83
2020-05-17 22:00:00 11.8 6 Nordeste 21 Este 0 -- -- 82
2020-05-17 21:00:00 12 6 Nordeste 21 Norte 0 -- -- 84
2020-05-17 20:00:00 12.1 6 Norte 19 Norte 0 -- -- 77
2020-05-17 19:00:00 13.3 6 Nordeste 18 Norte 0 -- -- 77
2020-05-17 18:00:00 14 5 Este 25 Sudeste 0 -- -- 75
2020-05-17 17:00:00 13.7 10 Este 22 Este 0 -- -- 77
2020-05-17 16:00:00 12.2 8 Oeste 24 Sudeste 0 -- -- 88
2020-05-17 15:00:00 12.3 6 Oeste 17 Sudeste 0 -- -- 86
2020-05-17 14:00:00 11.9 5 Sudeste 28 Sudeste 0 -- -- 90
2020-05-17 13:00:00 11.7 8 Este 24 Sudeste 0.2 -- -- 93
2020-05-17 12:00:00 11.6 5 Este 14 Este 0 -- -- 93
2020-05-17 11:00:00 11.8 8 Este 21 Sudeste 0 -- -- 82
2020-05-17 10:00:00 11.8 8 Sudeste 28 Sudeste 0 -- -- 75
2020-05-17 09:00:00 11.7 9 Este 26 Este 0 -- -- 76
2020-05-17 08:00:00 10.7 6 Nordeste 21 Norte 0 -- -- 83
2020-05-17 07:00:00 10.7 7 Nordeste 22 Norte 0 -- -- 83
2020-05-17 06:00:00 10.5 5 Norte 21 Este 0 -- -- 82
2020-05-17 05:00:00 10.4 6 Nordeste 23 Este 0 -- -- 83
2020-05-17 04:00:00 10.7 6 Nordeste 23 Norte 0 -- -- 83
2020-05-17 03:00:00 10.7 6 Nordeste 21 Nordeste 0 -- -- 82
2020-05-17 02:00:00 10.9 9 Nordeste 19 Norte 0 -- -- 86
2020-05-17 01:00:00 11.1 6 Nordeste 20 Nordeste 0 -- -- 86
2020-05-17 00:00:00 11.3 5 Nordeste 17 Este 0 -- -- 87
2020-05-16 23:00:00 11.3 7 Nordeste 23 Este 0 -- -- 87
2020-05-16 22:00:00 11.3 8 Nordeste 24 Norte 0 -- -- 87
2020-05-16 21:00:00 11.5 7 Nordeste 23 Este 0 -- -- 89
2020-05-16 20:00:00 12.3 6 Nordeste 21 Noroeste 0 -- -- 86
2020-05-16 19:00:00 12.8 7 Nordeste 23 Este 0 -- -- 78
2020-05-16 18:00:00 12.9 7 Este 19 Nordeste 0 -- -- 83
2020-05-16 17:00:00 13.5 8 Este 22 Norte 0 -- -- 84
2020-05-16 16:00:00 14.1 5 Nordeste 22 Norte 0 -- -- 80
2020-05-16 15:00:00 14.5 6 Noroeste 20 Norte 0 -- -- 74
2020-05-16 14:00:00 14.2 8 Nordeste 25 Noroeste 0 -- -- 76
2020-05-16 13:00:00 13.8 8 Norte 26 Nordeste 0 -- -- 78
2020-05-16 12:00:00 13.8 7 Nordeste 29 Norte 0 -- -- 76
2020-05-16 11:00:00 13.7 8 Nordeste 30 Norte 0 -- -- 79
2020-05-16 10:00:00 13 10 Nordeste 32 Noroeste 0 -- -- 82
2020-05-16 09:00:00 12 5 Nordeste 21 Nordeste 0 -- -- 82
2020-05-16 08:00:00 10.3 5 Norte 15 Norte 0 -- -- 82
2020-05-16 07:00:00 11 6 Nordeste 19 Norte 0 -- -- 82
2020-05-16 06:00:00 11.1 5 Nordeste 19 Nordeste 0 -- -- 82
2020-05-16 05:00:00 11.7 6 Nordeste 19 Nordeste 0 -- -- 82
2020-05-16 04:00:00 11.5 9 Nordeste 23 Este 0 -- -- 85
2020-05-16 03:00:00 11.1 9 Nordeste 22 Este 0 -- -- 83
2020-05-16 02:00:00 11.6 7 Este 30 Nordeste 0 -- -- 86
2020-05-16 01:00:00 11.7 8 Nordeste 33 Norte 0 -- -- 84
2020-05-16 00:00:00 11.8 11 Nordeste 30 Norte 0 -- -- 86
2020-05-15 23:00:00 11.8 7 Nordeste 23 Norte 0 -- -- 88
2020-05-15 22:00:00 11.9 6 Este 27 Este 0 -- -- 90
2020-05-15 21:00:00 12.1 12 Este 28 Noroeste 0 -- -- 87
2020-05-15 20:00:00 13 4 Este 19 Este 0 -- -- 80
2020-05-15 19:00:00 13.3 6 Nordeste 23 Este 0 -- -- 79
2020-05-15 18:00:00 13.6 9 Este 22 Este 0 -- -- 77
2020-05-15 17:00:00 14 4 Norte 22 Este 0 -- -- 79
2020-05-15 16:00:00 14 12 Este 27 Este 0 -- -- 80
2020-05-15 15:00:00 13.4 7 Nordeste 29 Este 0 -- -- 86
2020-05-15 14:00:00 15.4 10 Norte 28 Norte 0 -- -- 70
2020-05-15 13:00:00 14.9 8 Nordeste 24 Norte 0 -- -- 71
2020-05-15 12:00:00 14.7 9 Nordeste 38 Noroeste 0 -- -- 67
2020-05-15 11:00:00 14.2 9 Norte 32 Este 0 -- -- 71
2020-05-15 10:00:00 12.5 10 Este 32 Sudeste 0 -- -- 77
2020-05-15 09:00:00 11.1 10 Nordeste 24 Norte 0 -- -- 81
2020-05-15 08:00:00 9.8 5 Sur 29 Norte 0 -- -- 76
2020-05-15 07:00:00 10 12 Noroeste 51 Norte 0 -- -- 86
2020-05-15 06:00:00 9.8 17 Norte 41 Noroeste 0 -- -- 87
2020-05-15 05:00:00 10.2 10 Norte 28 Norte 0 -- -- 84
2020-05-15 04:00:00 10.3 11 Norte 37 Norte 0 -- -- 86
2020-05-15 03:00:00 10.4 12 Norte 48 Norte 0 -- -- 84
2020-05-15 02:00:00 10.4 11 Nordeste 33 Nordeste 0.2 -- -- 86
2020-05-15 01:00:00 10.7 10 Nordeste 35 Noroeste 0 -- -- 88
2020-05-15 00:00:00 11 8 Norte 40 Noroeste 0 -- -- 87
2020-05-14 23:00:00 10.8 14 Norte 42 Norte 0 -- -- 88
2020-05-14 22:00:00 10.8 14 Noroeste 50 Noroeste 0 -- -- 84
2020-05-14 21:00:00 10.9 18 Noroeste 50 Noroeste 0 -- -- 84
2020-05-14 20:00:00 11.2 16 Noroeste 43 Noroeste 0 -- -- 76
2020-05-14 19:00:00 12.6 20 Norte 46 Noroeste 0 -- -- 73
2020-05-14 18:00:00 14.3 11 Nordeste 49 Norte 0 -- -- 67
2020-05-14 17:00:00 14.7 13 Norte 41 Nordeste 0 -- -- 65
2020-05-14 16:00:00 14.9 13 Norte 48 Norte 0 -- -- 67
2020-05-14 15:00:00 15 14 Norte 40 Norte 0 -- -- 65
2020-05-14 14:00:00 15.1 12 Nordeste 38 Norte 0 -- -- 67
2020-05-14 13:00:00 15 11 Norte 36 Norte 0 -- -- 68
2020-05-14 12:00:00 14.2 11 Norte 34 Norte 0 -- -- 72
2020-05-14 11:00:00 13 12 Norte 35 Nordeste 0 -- -- 72
2020-05-14 10:00:00 12.1 8 Norte 39 Nordeste 0 -- -- 82
2020-05-14 09:00:00 11.5 12 Nordeste 33 Nordeste 0 -- -- 93
2020-05-14 08:00:00 11.3 12 Norte 30 Norte 0 -- -- 85
2020-05-14 07:00:00 10.8 9 Noroeste 42 Norte 0 -- -- 83
2020-05-14 06:00:00 10.7 16 Norte 46 Noroeste 0 -- -- 83
2020-05-14 05:00:00 10.7 15 Norte 48 Noroeste 0 -- -- 83
2020-05-14 04:00:00 10.6 14 Norte 40 Norte 0 -- -- 81
2020-05-14 03:00:00 10.7 11 Norte 38 Norte 0 -- -- 75
2020-05-14 02:00:00 10.5 14 Norte 39 Norte 0 -- -- 80
2020-05-14 01:00:00 10.8 10 Este 29 Oeste 0 -- -- 84
2020-05-14 00:00:00 10.4 6 Oeste 25 Oeste 0 -- -- 83
2020-05-13 23:00:00 10.6 7 Norte 30 Noroeste 0 -- -- 82
2020-05-13 22:00:00 11.3 9 Norte 37 Norte 0 -- -- 82
2020-05-13 21:00:00 11.3 10 Norte 27 Norte 0 -- -- 79
2020-05-13 20:00:00 11.8 8 Oeste 27 Oeste 0 -- -- 77
2020-05-13 19:00:00 13.8 6 Norte 27 Noroeste 0 -- -- 73
2020-05-13 18:00:00 14.9 8 Noroeste 35 Noroeste 0 -- -- 69
2020-05-13 17:00:00 16 8 Norte 32 Oeste 0 -- -- 67
2020-05-13 16:00:00 15.9 9 Norte 32 Norte 0 -- -- 70
2020-05-13 15:00:00 16.4 10 Norte 31 Norte 0 -- -- 70
2020-05-13 14:00:00 17.8 9 Norte 37 Norte 0 -- -- 63
2020-05-13 13:00:00 17.3 13 Norte 37 Norte 0 -- -- 68
2020-05-13 12:00:00 16.9 13 Norte 45 Norte 0 -- -- 65
2020-05-13 11:00:00 15.4 13 Norte 39 Nordeste 0 -- -- 67
2020-05-13 10:00:00 13.9 15 Norte 39 Norte 0 -- -- 72
2020-05-13 09:00:00 12.1 8 Este 30 Este 0 -- -- 87
2020-05-13 08:00:00 11.9 9 Nordeste 28 Este 0 -- -- 89
2020-05-13 07:00:00 11.9 6 Noroeste 28 Este 0 -- -- 91
2020-05-13 06:00:00 11.9 9 Nordeste 24 Nordeste 0 -- -- 89
2020-05-13 05:00:00 12.1 5 Nordeste 27 Noroeste 0 -- -- 92
2020-05-13 04:00:00 12.2 9 Nordeste 29 Oeste 0 -- -- 94
2020-05-13 03:00:00 12.2 12 Nordeste 33 Nordeste 0 -- -- 93
2020-05-13 02:00:00 12.6 8 Sudoeste 24 Norte 0 -- -- 92
2020-05-13 01:00:00 12.5 8 Sudeste 28 Este 0 -- -- 85
2020-05-13 00:00:00 12.6 9 Este 39 Norte 0 -- -- 92
2020-05-12 23:00:00 12.6 11 Nordeste 37 Este 0 -- -- 87
2020-05-12 22:00:00 12.6 13 Nordeste 36 Sudoeste 0 -- -- 89
2020-05-12 21:00:00 12.9 7 Oeste 25 Sudoeste 0 -- -- 88
2020-05-12 20:00:00 13.4 8 Norte 27 Noroeste 0 -- -- 86
2020-05-12 19:00:00 14.2 9 Norte 28 Norte 0 -- -- 79
2020-05-12 18:00:00 14.8 9 Nordeste 29 Este 0 -- -- 75
2020-05-12 17:00:00 15.1 12 Norte 40 Norte 0 -- -- 73
2020-05-12 16:00:00 14.4 9 Nordeste 28 Este 0 -- -- 80
2020-05-12 15:00:00 14.9 9 Nordeste 35 Norte 0 -- -- 74
2020-05-12 14:00:00 15.5 11 Nordeste 38 Norte 0 -- -- 69
2020-05-12 13:00:00 14.4 9 Norte 29 Noroeste 0 -- -- 72
2020-05-12 12:00:00 13.4 9 Sur 33 Norte 0 -- -- 75
2020-05-12 11:00:00 12 10 Norte 31 Norte 0 -- -- 85
2020-05-12 10:00:00 11.8 8 Norte 26 Norte 0 -- -- 91
2020-05-12 09:00:00 11.6 9 Norte 30 Oeste 0.4 -- -- 95
2020-05-12 08:00:00 11.7 11 Oeste 32 Norte 0.2 -- -- 94
2020-05-12 07:00:00 11.4 5 Nordeste 21 Sur 0 -- -- 90
2020-05-12 06:00:00 11.3 10 Norte 32 Noroeste 0 -- -- 89
2020-05-12 05:00:00 11.4 10 Norte 34 Oeste 0 -- -- 87
2020-05-12 04:00:00 11.2 6 Norte 28 Norte 0 -- -- 87
2020-05-12 03:00:00 11.1 12 Este 38 Norte 0 -- -- 84
2020-05-12 02:00:00 11.2 10 Norte 40 Norte 0 -- -- 87
2020-05-12 01:00:00 11.5 8 Noroeste 33 Noroeste 0 -- -- 89
2020-05-12 00:00:00 11.4 14 Norte 50 Norte 0 -- -- 85
2020-05-11 23:00:00 11.9 11 Norte 42 Oeste 0 -- -- 83
2020-05-11 22:00:00 12.8 10 Norte 42 Noroeste 0 -- -- 92
2020-05-11 21:00:00 13.6 12 Noroeste 42 Noroeste 1.4 -- -- 97
2020-05-11 20:00:00 14.5 11 Norte 31 Norte 2.2 -- -- 92
2020-05-11 19:00:00 15.1 14 Noroeste 44 Noroeste 0 -- -- 85
2020-05-11 18:00:00 18.1 12 Noroeste 41 Norte 0 -- -- 65
2020-05-11 17:00:00 18.1 17 Norte 39 Nordeste 0 -- -- 64
2020-05-11 16:00:00 19.5 16 Norte 41 Norte 0 -- -- 59
2020-05-11 15:00:00 20.5 11 Norte 32 Norte 0 -- -- 52
2020-05-11 14:00:00 20.1 10 Este 27 Sur 0 -- -- 55
2020-05-11 13:00:00 19.8 10 Sur 26 Sudoeste 0 -- -- 49
2020-05-11 12:00:00 18.6 8 Sudeste 18 Sur 0 -- -- 73
2020-05-11 11:00:00 16.9 7 Este 19 Sur 0 -- -- 79
2020-05-11 10:00:00 15.8 6 Sur 21 Sur 0 -- -- 84
2020-05-11 09:00:00 15.9 7 Sur 18 Este 0 -- -- 77
2020-05-11 08:00:00 13.2 3 Nordeste 12 Este 0 -- -- 74
2020-05-11 07:00:00 15 5 Norte 22 Norte 0 -- -- 55
2020-05-11 06:00:00 14.9 5 Noroeste 31 Norte 0 -- -- 57
2020-05-11 05:00:00 15.1 12 Norte 27 Norte 0 -- -- 60
2020-05-11 04:00:00 15 5 Noroeste 21 Noroeste 0 -- -- 64
2020-05-11 03:00:00 13.9 3 Noroeste 23 Norte 0 -- -- 66
2020-05-11 02:00:00 14.4 10 Norte 25 Noroeste 0 -- -- 72
2020-05-11 01:00:00 15.3 10 Norte 31 Norte 0 -- -- 64
2020-05-11 00:00:00 15.5 6 Nordeste 34 Norte 0 -- -- 63
2020-05-10 23:00:00 14.8 11 Norte 30 Nordeste 0 -- -- 72
2020-05-10 22:00:00 16.4 8 Nordeste 30 Este 0 -- -- 59
2020-05-10 21:00:00 16.5 10 Nordeste 33 Noroeste 0 -- -- 60
2020-05-10 20:00:00 16.8 12 Norte 38 Norte 0 -- -- 65
2020-05-10 19:00:00 19.2 12 Norte 31 Norte 0 -- -- 58
2020-05-10 18:00:00 21.3 10 Nordeste 33 Norte 0 -- -- 46
2020-05-10 17:00:00 21.7 11 Norte 27 Nordeste 0 -- -- 52
2020-05-10 16:00:00 22.8 8 Nordeste 26 Nordeste 0 -- -- 41
2020-05-10 15:00:00 21.2 9 Sudeste 17 Sudeste 0 -- -- 53
2020-05-10 14:00:00 20.1 6 Sudeste 20 Este 0 -- -- 60
2020-05-10 13:00:00 19.4 8 Sudoeste 21 Norte 0 -- -- 58
2020-05-10 12:00:00 19 9 Nordeste 28 Oeste 0 -- -- 57
2020-05-10 11:00:00 18.1 9 Sudeste 16 Sudeste 0 -- -- 67
2020-05-10 10:00:00 17.6 7 Sudeste 17 Sur 0 -- -- 62
2020-05-10 09:00:00 15.9 3 Sudeste 22 Este 0 -- -- 61
2020-05-10 08:00:00 13.6 9 Nordeste 19 Nordeste 0 -- -- 61
2020-05-10 07:00:00 12.7 5 Norte 28 Este 0 -- -- 70
2020-05-10 06:00:00 12.6 7 Nordeste 31 Norte 0 -- -- 76
2020-05-10 05:00:00 12 14 Norte 32 Norte 0 -- -- 85
2020-05-10 04:00:00 12.3 14 Norte 37 Norte 0 -- -- 84
2020-05-10 03:00:00 14.1 9 Este 24 Este 0 -- -- 55
2020-05-10 02:00:00 13.7 5 Nordeste 36 Norte 0 -- -- 64
2020-05-10 01:00:00 13.1 16 Noroeste 35 Norte 0 -- -- 79
2020-05-10 00:00:00 13.2 15 Noroeste 32 Norte 0 -- -- 86
2020-05-09 23:00:00 13.6 7 Noroeste 23 Sur 0 -- -- 84
2020-05-09 22:00:00 13.6 8 Sudoeste 18 Sudoeste 0 -- -- 78
2020-05-09 21:00:00 13.6 7 Oeste 23 Oeste 0 -- -- 78
2020-05-09 20:00:00 14.5 8 Norte 24 Sur 0 -- -- 75
2020-05-09 19:00:00 16.1 9 Sudoeste 26 Sur 0 -- -- 72
2020-05-09 18:00:00 16.3 7 Sudoeste 19 Sudeste 0 -- -- 76
2020-05-09 17:00:00 17.3 6 Noroeste 21 Norte 0 -- -- 69
2020-05-09 16:00:00 18.9 8 Oeste 22 Noroeste 0 -- -- 60
2020-05-09 15:00:00 19.1 8 Noroeste 28 Noroeste 0 -- -- 63
2020-05-09 14:00:00 19.2 6 Sudeste 24 Noroeste 0 -- -- 74
2020-05-09 13:00:00 18 9 Noroeste 24 Noroeste 0 -- -- 72
2020-05-09 12:00:00 17.2 8 Sudeste 15 Sudeste 0 -- -- 79
2020-05-09 11:00:00 17.1 8 Sudeste 15 Sudeste 0 -- -- 75
2020-05-09 10:00:00 17.2 6 Sudeste 19 Noroeste 0 -- -- 73
2020-05-09 09:00:00 15.5 6 Noroeste 24 Norte 0 -- -- 77
2020-05-09 08:00:00 13.8 8 Noroeste 23 Noroeste 0 -- -- 84
2020-05-09 07:00:00 13.2 5 Noroeste 13 Noroeste 0 -- -- 82
2020-05-09 06:00:00 14.1 9 Norte 24 Norte 0 -- -- 77
2020-05-09 05:00:00 14.7 7 Noroeste 28 Este 0 -- -- 72
2020-05-09 04:00:00 13.8 6 Este 15 Norte 0 -- -- 74
2020-05-09 03:00:00 14 6 Nordeste 19 Norte 0 -- -- 76
2020-05-09 02:00:00 13.4 8 Norte 17 Noroeste 0 -- -- 71
2020-05-09 01:00:00 13.8 8 Norte 17 Noroeste 0 -- -- 71
2020-05-09 00:00:00 13.7 4 Nordeste 14 Este 0 -- -- 69
2020-05-08 23:00:00 13.4 3 Norte 13 Sudoeste 0 -- -- 70
2020-05-08 22:00:00 14.7 6 Sudoeste 19 Nordeste 0 -- -- 69
2020-05-08 21:00:00 13.7 5 Sudeste 15 Sudeste 0 -- -- 93
2020-05-08 20:00:00 15 6 Este 26 Nordeste 0 -- -- 87
2020-05-08 19:00:00 18.2 8 Norte 28 Norte 0 -- -- 52
2020-05-08 18:00:00 19.7 9 Noroeste 22 Norte 0 -- -- 48
2020-05-08 17:00:00 19.7 9 Oeste 18 Sudeste 0 -- -- 44
2020-05-08 16:00:00 19 6 Sur 24 Sur 0 -- -- 69
2020-05-08 15:00:00 18.7 9 Sudeste 19 Sur 0 -- -- 69
2020-05-08 14:00:00 18.4 9 Sudeste 19 Sur 0 -- -- 67
2020-05-08 13:00:00 17.5 8 Sudeste 18 Sur 0 -- -- 70
2020-05-08 12:00:00 17.6 9 Sur 17 Sudeste 0 -- -- 67
2020-05-08 11:00:00 16.7 8 Sudeste 14 Este 0 -- -- 74
2020-05-08 10:00:00 15.7 6 Sudeste 12 Sudeste 0 -- -- 75
2020-05-08 09:00:00 12.7 0 Calma 8 Sudeste 0 -- -- 77
2020-05-08 08:00:00 7.8 5 Norte 10 Norte 0 -- -- 76
2020-05-08 07:00:00 7.5 6 Norte 10 Norte 0 -- -- 79
2020-05-08 06:00:00 8.5 6 Norte 13 Noroeste 0 -- -- 85
2020-05-08 05:00:00 9.2 6 Noroeste 12 Noroeste 0 -- -- 87
2020-05-08 04:00:00 9.9 5 Noroeste 9 Oeste 0 -- -- 89
2020-05-08 03:00:00 10.8 3 Oeste 6 Noroeste 0 -- -- 88
2020-05-08 02:00:00 11.1 0 Calma 9 Oeste 0 -- -- 86
2020-05-08 01:00:00 12.2 2 Oeste 10 Sur 0 -- -- 82
2020-05-08 00:00:00 12.7 4 Sur 24 Sur 0 -- -- 82
2020-05-07 23:00:00 13.2 8 Sur 31 Sudeste 0 -- -- 78
2020-05-07 22:00:00 12.9 5 Oeste 14 Sudeste 0 -- -- 79
2020-05-07 21:00:00 13.6 4 Sur 17 Noroeste 0 -- -- 77
2020-05-07 20:00:00 14.2 4 Este 22 Oeste 0 -- -- 78
2020-05-07 19:00:00 14.8 5 Norte 20 Noroeste 0 -- -- 75
2020-05-07 18:00:00 15.7 5 Noroeste 21 Noroeste 0 -- -- 69
2020-05-07 17:00:00 16.1 6 Norte 22 Noroeste 0 -- -- 71
2020-05-07 16:00:00 16.6 9 Noroeste 22 Noroeste 0 -- -- 65
2020-05-07 15:00:00 17.4 6 Oeste 21 Norte 0 -- -- 61
2020-05-07 14:00:00 16 6 Oeste 19 Oeste 0 -- -- 65
2020-05-07 13:00:00 15.6 7 Norte 19 Este 0 -- -- 72
2020-05-07 12:00:00 16.6 6 Noroeste 18 Noroeste 0 -- -- 62
2020-05-07 11:00:00 15.4 6 Nordeste 23 Norte 0 -- -- 66
2020-05-07 10:00:00 14.7 7 Noroeste 21 Este 0 -- -- 73
2020-05-07 09:00:00 13.3 5 Nordeste 14 Noroeste 0 -- -- 77
2020-05-07 08:00:00 11.8 6 Norte 12 Noroeste 0 -- -- 89
2020-05-07 07:00:00 10.6 2 Sudoeste 14 Oeste 0 -- -- 90
2020-05-07 06:00:00 10.5 3 Noroeste 12 Noroeste 0 -- -- 89
2020-05-07 05:00:00 9.9 2 Norte 10 Sudeste 0 -- -- 89
2020-05-07 04:00:00 11.6 2 Norte 8 Norte 0 -- -- 84
2020-05-07 03:00:00 12.6 0 Calma 8 Norte 0 -- -- 88
2020-05-07 02:00:00 12.6 0 Calma 12 Noroeste 0 -- -- 84
2020-05-07 01:00:00 12.5 3 Norte 13 Noroeste 0 -- -- 85
2020-05-07 00:00:00 12.1 3 Norte 15 Norte 0 -- -- 84
2020-05-06 23:00:00 12.5 5 Norte 15 Nordeste 0 -- -- 81
2020-05-06 22:00:00 13.3 3 Norte 9 Norte 0 -- -- 77
2020-05-06 21:00:00 13.9 3 Nordeste 10 Noroeste 0 -- -- 76
2020-05-06 20:00:00 14.5 4 Sudoeste 18 Nordeste 0 -- -- 73
2020-05-06 19:00:00 15.4 7 Noroeste 23 Noroeste 0 -- -- 73
2020-05-06 18:00:00 17.5 8 Noroeste 24 Noroeste 0 -- -- 62
2020-05-06 17:00:00 16.9 9 Noroeste 28 Noroeste 0 -- -- 65
2020-05-06 16:00:00 18 9 Noroeste 28 Noroeste 0 -- -- 63
2020-05-06 15:00:00 18.1 9 Norte 26 Noroeste 0 -- -- 61
2020-05-06 14:00:00 17.6 9 Sudeste 21 Noroeste 0 -- -- 73
2020-05-06 13:00:00 16.4 6 Noroeste 19 Sudeste 0 -- -- 69
2020-05-06 12:00:00 16.6 9 Sudeste 19 Sudeste 0 -- -- 70
2020-05-06 11:00:00 14.9 7 Sudeste 14 Sudeste 0 -- -- 77
2020-05-06 10:00:00 14.5 6 Sur 14 Noroeste 0 -- -- 69
2020-05-06 09:00:00 12.9 6 Norte 27 Norte 0 -- -- 71
2020-05-06 08:00:00 11.5 6 Norte 19 Noroeste 0 -- -- 72
2020-05-06 07:00:00 10.5 3 Nordeste 12 Nordeste 0 -- -- 76
2020-05-06 06:00:00 11.3 5 Nordeste 18 Nordeste 0 -- -- 76
2020-05-06 05:00:00 11.1 5 Nordeste 13 Este 0 -- -- 75
2020-05-06 04:00:00 11.1 3 Nordeste 14 Este 0 -- -- 75
2020-05-06 03:00:00 10.9 4 Nordeste 20 Noroeste 0 -- -- 77
2020-05-06 02:00:00 11.1 6 Norte 18 Norte 0 -- -- 78
2020-05-06 01:00:00 11.5 7 Norte 22 Norte 0 -- -- 80
2020-05-06 00:00:00 11.9 9 Norte 27 Norte 0 -- -- 73
2020-05-05 23:00:00 11.8 8 Norte 22 Norte 0 -- -- 77
2020-05-05 22:00:00 12.1 5 Norte 15 Norte 0 -- -- 79
2020-05-05 21:00:00 13.1 8 Norte 21 Norte 0 -- -- 79
2020-05-05 20:00:00 14.2 6 Norte 18 Norte 0 -- -- 75
2020-05-05 19:00:00 16.6 6 Noroeste 21 Norte 0 -- -- 65
2020-05-05 18:00:00 18.3 9 Noroeste 21 Noroeste 0 -- -- 51
2020-05-05 17:00:00 18.7 10 Sur 22 Sudeste 0 -- -- 47
2020-05-05 16:00:00 19 8 Sudoeste 24 Sur 0 -- -- 54
2020-05-05 15:00:00 18.3 12 Sudeste 21 Sudeste 0 -- -- 53
2020-05-05 14:00:00 17.9 10 Sudeste 20 Sudeste 0 -- -- 55
2020-05-05 13:00:00 18 11 Sudeste 19 Sudeste 0 -- -- 58
2020-05-05 12:00:00 17 10 Sudeste 17 Sur 0 -- -- 68
2020-05-05 11:00:00 16.6 8 Sudeste 15 Sudeste 0 -- -- 70
2020-05-05 10:00:00 15.4 6 Sudeste 12 Sudeste 0 -- -- 73
2020-05-05 09:00:00 12.7 5 Sudeste 9 Este 0 -- -- 81
2020-05-05 08:00:00 9 4 Norte 16 Norte 0 -- -- 80
2020-05-05 07:00:00 10 8 Noroeste 19 Norte 0 -- -- 84
2020-05-05 06:00:00 7.9 6 Noroeste 13 Norte 0 -- -- 80
2020-05-05 05:00:00 9.2 7 Noroeste 12 Noroeste 0 -- -- 90
2020-05-05 04:00:00 9 4 Norte 13 Noroeste 0 -- -- 86
2020-05-05 03:00:00 8.3 5 Noroeste 9 Noroeste 0 -- -- 83
2020-05-05 02:00:00 8.5 5 Norte 10 Noroeste 0 -- -- 73
2020-05-05 01:00:00 9 5 Norte 11 Norte 0 -- -- 72
2020-05-05 00:00:00 10.6 6 Norte 17 Noroeste 0 -- -- 78
2020-05-04 23:00:00 10.9 6 Norte 19 Norte 0 -- -- 80
2020-05-04 22:00:00 11.5 9 Noroeste 21 Noroeste 0 -- -- 82
2020-05-04 21:00:00 12.2 7 Noroeste 22 Noroeste 0 -- -- 80
2020-05-04 20:00:00 14.2 7 Norte 18 Norte 0 -- -- 74
2020-05-04 19:00:00 16.8 9 Sudeste 17 Sur 0 -- -- 71
2020-05-04 18:00:00 16.9 6 Sudoeste 24 Sur 0 -- -- 69
2020-05-04 17:00:00 18.2 11 Sur 24 Sur 0 -- -- 67
2020-05-04 16:00:00 15.5 8 Sudeste 16 Sur 0 -- -- 81
2020-05-04 15:00:00 15.3 7 Este 22 Sudeste 0 -- -- 80
2020-05-04 14:00:00 15.6 9 Sudeste 15 Sudeste 0 -- -- 78
2020-05-04 13:00:00 16.5 8 Sudeste 22 Noroeste 0 -- -- 72
2020-05-04 12:00:00 16.5 8 Noroeste 20 Noroeste 0 -- -- 68
2020-05-04 11:00:00 15.3 7 Noroeste 16 Norte 0 -- -- 73
2020-05-04 10:00:00 14.6 10 Noroeste 25 Noroeste 0 -- -- 74
2020-05-04 09:00:00 14.1 6 Noroeste 22 Noroeste 0 -- -- 78
2020-05-04 08:00:00 11.5 8 Noroeste 22 Noroeste 0 -- -- 81
2020-05-04 07:00:00 11.8 5 Noroeste 26 Noroeste 0 -- -- 74
2020-05-04 06:00:00 12.2 9 Oeste 27 Noroeste 0 -- -- 71
2020-05-04 05:00:00 12.3 10 Oeste 25 Noroeste 0 -- -- 77
2020-05-04 04:00:00 12.5 12 Oeste 30 Noroeste 0 -- -- 72
2020-05-04 03:00:00 13.1 11 Noroeste 36 Norte 0 -- -- 72
2020-05-04 02:00:00 12.9 9 Oeste 24 Oeste 0 -- -- 64
2020-05-04 01:00:00 12.7 12 Noroeste 33 Oeste 0 -- -- 72
2020-05-04 00:00:00 12.7 9 Norte 34 Norte 0 -- -- 72
2020-05-03 23:00:00 13.8 9 Norte 35 Norte 0 -- -- 76
2020-05-03 22:00:00 14.4 13 Noroeste 42 Noroeste 0 -- -- 81
2020-05-03 21:00:00 14.9 17 Noroeste 40 Noroeste 0 -- -- 82
2020-05-03 20:00:00 16.2 10 Oeste 25 Noroeste 0 -- -- 76
2020-05-03 19:00:00 19 9 Sudeste 21 Sur 0 -- -- 63
2020-05-03 18:00:00 22.4 7 Sudoeste 23 Oeste 0 -- -- 48
2020-05-03 17:00:00 20.6 10 Sur 30 Sur 0 -- -- 49
2020-05-03 16:00:00 21.7 12 Sur 31 Sur 0 -- -- 49
2020-05-03 15:00:00 20.4 13 Sur 28 Sur 0 -- -- 59
2020-05-03 14:00:00 19 10 Sudeste 18 Sudeste 0 -- -- 64
2020-05-03 13:00:00 18.2 12 Sudeste 18 Sudeste 0 -- -- 67
2020-05-03 12:00:00 18.4 9 Sudeste 17 Sudeste 0 -- -- 65
2020-05-03 11:00:00 17.8 8 Sur 16 Sur 0 -- -- 69
2020-05-03 10:00:00 19.1 7 Sur 24 Oeste 0 -- -- 58
2020-05-03 09:00:00 19.6 11 Oeste 23 Oeste 0 -- -- 15
2020-05-03 08:00:00 17.4 13 Oeste 25 Oeste 0 -- -- 16
2020-05-03 07:00:00 18.2 15 Oeste 27 Oeste 0 -- -- 15
2020-05-03 06:00:00 18.4 14 Oeste 27 Oeste 0 -- -- 14
2020-05-03 05:00:00 19 16 Oeste 28 Oeste 0 -- -- 5
2020-05-03 04:00:00 18.5 13 Oeste 28 Oeste 0 -- -- 3
2020-05-03 03:00:00 18.6 12 Oeste 24 Oeste 0 -- -- 2
2020-05-03 02:00:00 18.3 12 Oeste 26 Oeste 0 -- -- 5
2020-05-03 01:00:00 19.7 15 Oeste 26 Oeste 0 -- -- 3
2020-05-03 00:00:00 17.9 10 Oeste 24 Oeste 0 -- -- 6